sensor_id;sensor_type;location;lat;lon;timestamp;pressure;altitude;pressure_sealevel;temperature
67509;BMP280;54354;44.724;11.284;2022-11-11T00:01:06;103166.47;;;20.21
67509;BMP280;54354;44.724;11.284;2022-11-11T00:03:53;103153.34;;;20.23
67509;BMP280;54354;44.724;11.284;2022-11-11T00:06:39;103152.84;;;20.28
67509;BMP280;54354;44.724;11.284;2022-11-11T00:09:23;103159.41;;;20.27
67509;BMP280;54354;44.724;11.284;2022-11-11T00:12:07;103160.94;;;20.28
67509;BMP280;54354;44.724;11.284;2022-11-11T00:14:51;103165.22;;;20.25
67509;BMP280;54354;44.724;11.284;2022-11-11T00:17:35;103164.84;;;20.23
67509;BMP280;54354;44.724;11.284;2022-11-11T00:20:38;103163.78;;;20.21
67509;BMP280;54354;44.724;11.284;2022-11-11T00:23:41;103166.78;;;20.23
67509;BMP280;54354;44.724;11.284;2022-11-11T00:26:44;103173.28;;;20.25
67509;BMP280;54354;44.724;11.284;2022-11-11T00:29:28;103175.22;;;20.25
67509;BMP280;54354;44.724;11.284;2022-11-11T00:32:12;103173.28;;;20.25
67509;BMP280;54354;44.724;11.284;2022-11-11T00:35:06;103172.09;;;20.26
67509;BMP280;54354;44.724;11.284;2022-11-11T00:38:11;103169.84;;;20.25
67509;BMP280;54354;44.724;11.284;2022-11-11T00:41:19;103170.59;;;20.25
67509;BMP280;54354;44.724;11.284;2022-11-11T00:44:03;103173.28;;;20.25
67509;BMP280;54354;44.724;11.284;2022-11-11T00:46:47;103166.41;;;20.24
67509;BMP280;54354;44.724;11.284;2022-11-11T00:49:50;103169.47;;;20.23
67509;BMP280;54354;44.724;11.284;2022-11-11T00:52:52;103171.41;;;20.22
67509;BMP280;54354;44.724;11.284;2022-11-11T00:55:37;103176.47;;;20.20
67509;BMP280;54354;44.724;11.284;2022-11-11T00:58:22;103174.56;;;20.17
67509;BMP280;54354;44.724;11.284;2022-11-11T01:01:06;103176.88;;;20.19
67509;BMP280;54354;44.724;11.284;2022-11-11T01:03:50;103173.09;;;20.16
67509;BMP280;54354;44.724;11.284;2022-11-11T01:06:34;103176.13;;;20.18
67509;BMP280;54354;44.724;11.284;2022-11-11T01:09:18;103181.50;;;20.18
67509;BMP280;54354;44.724;11.284;2022-11-11T01:12:02;103184.94;;;20.19
67509;BMP280;54354;44.724;11.284;2022-11-11T01:14:46;103187.63;;;20.19
67509;BMP280;54354;44.724;11.284;2022-11-11T01:17:30;103185.34;;;20.17
67509;BMP280;54354;44.724;11.284;2022-11-11T01:20:14;103182.66;;;20.17
67509;BMP280;54354;44.724;11.284;2022-11-11T01:22:58;103184.59;;;20.17
67509;BMP280;54354;44.724;11.284;2022-11-11T01:25:42;103174.25;;;20.15
67509;BMP280;54354;44.724;11.284;2022-11-11T01:28:26;103170.81;;;20.14
67509;BMP280;54354;44.724;11.284;2022-11-11T01:31:12;103165.50;;;20.11
67509;BMP280;54354;44.724;11.284;2022-11-11T01:33:56;103165.81;;;20.13
67509;BMP280;54354;44.724;11.284;2022-11-11T01:36:40;103164.72;;;20.10
67509;BMP280;54354;44.724;11.284;2022-11-11T01:39:24;103173.91;;;20.13
67509;BMP280;54354;44.724;11.284;2022-11-11T01:42:08;103176.97;;;20.15
67509;BMP280;54354;44.724;11.284;2022-11-11T01:44:52;103170.03;;;20.14
67509;BMP280;54354;44.724;11.284;2022-11-11T01:47:35;103176.19;;;20.14
67509;BMP280;54354;44.724;11.284;2022-11-11T01:50:46;103177.63;;;20.19
67509;BMP280;54354;44.724;11.284;2022-11-11T01:53:30;103177.72;;;20.16
67509;BMP280;54354;44.724;11.284;2022-11-11T01:56:15;103178.88;;;20.14
67509;BMP280;54354;44.724;11.284;2022-11-11T01:59:02;103180.03;;;20.13
67509;BMP280;54354;44.724;11.284;2022-11-11T02:01:49;103179.16;;;20.20
67509;BMP280;54354;44.724;11.284;2022-11-11T02:04:33;103172.34;;;20.16
67509;BMP280;54354;44.724;11.284;2022-11-11T02:07:40;103170.81;;;20.14
67509;BMP280;54354;44.724;11.284;2022-11-11T02:10:26;103183.97;;;20.09
67509;BMP280;54354;44.724;11.284;2022-11-11T02:13:15;103190.59;;;20.04
67509;BMP280;54354;44.724;11.284;2022-11-11T02:16:17;103194.78;;;20.05
67509;BMP280;54354;44.724;11.284;2022-11-11T02:19:02;103201.00;;;20.02
67509;BMP280;54354;44.724;11.284;2022-11-11T02:21:54;103209.91;;;19.99
67509;BMP280;54354;44.724;11.284;2022-11-11T02:24:40;103202.19;;;20.01
67509;BMP280;54354;44.724;11.284;2022-11-11T02:27:25;103202.94;;;20.02
67509;BMP280;54354;44.724;11.284;2022-11-11T02:30:11;103197.19;;;20.03
67509;BMP280;54354;44.724;11.284;2022-11-11T02:32:59;103194.03;;;20.05
67509;BMP280;54354;44.724;11.284;2022-11-11T02:35:45;103186.72;;;20.05
67509;BMP280;54354;44.724;11.284;2022-11-11T02:38:38;103189.38;;;20.09
67509;BMP280;54354;44.724;11.284;2022-11-11T02:41:22;103192.06;;;20.09
67509;BMP280;54354;44.724;11.284;2022-11-11T02:44:25;103187.44;;;20.09
67509;BMP280;54354;44.724;11.284;2022-11-11T02:47:10;103180.19;;;20.06
67509;BMP280;54354;44.724;11.284;2022-11-11T02:49:53;103196.81;;;20.01
67509;BMP280;54354;44.724;11.284;2022-11-11T02:52:37;103191.50;;;19.98
67509;BMP280;54354;44.724;11.284;2022-11-11T02:55:21;103180.44;;;19.92
67509;BMP280;54354;44.724;11.284;2022-11-11T02:58:06;103185.53;;;19.86
67509;BMP280;54354;44.724;11.284;2022-11-11T03:00:49;103192.91;;;19.82
67509;BMP280;54354;44.724;11.284;2022-11-11T03:03:33;103192.66;;;19.77
67509;BMP280;54354;44.724;11.284;2022-11-11T03:06:17;103190.75;;;19.74
67509;BMP280;54354;44.724;11.284;2022-11-11T03:09:01;103184.69;;;19.70
67509;BMP280;54354;44.724;11.284;2022-11-11T03:11:45;103194.75;;;19.66
67509;BMP280;54354;44.724;11.284;2022-11-11T03:14:29;103203.25;;;19.61
67509;BMP280;54354;44.724;11.284;2022-11-11T03:17:13;103202.56;;;19.56
67509;BMP280;54354;44.724;11.284;2022-11-11T03:20:17;103193.47;;;19.50
67509;BMP280;54354;44.724;11.284;2022-11-11T03:23:20;103197.34;;;19.49
67509;BMP280;54354;44.724;11.284;2022-11-11T03:26:04;103202.75;;;19.46
67509;BMP280;54354;44.724;11.284;2022-11-11T03:28:48;103198.63;;;19.41
67509;BMP280;54354;44.724;11.284;2022-11-11T03:31:32;103199.41;;;19.38
67509;BMP280;54354;44.724;11.284;2022-11-11T03:34:17;103201.06;;;19.32
67509;BMP280;54354;44.724;11.284;2022-11-11T03:37:06;103192.28;;;19.28
67509;BMP280;54354;44.724;11.284;2022-11-11T03:40:10;103201.50;;;19.27
67509;BMP280;54354;44.724;11.284;2022-11-11T03:42:54;103211.56;;;19.23
67509;BMP280;54354;44.724;11.284;2022-11-11T03:45:38;103212.00;;;19.18
67509;BMP280;54354;44.724;11.284;2022-11-11T03:48:23;103205.94;;;19.14
67509;BMP280;54354;44.724;11.284;2022-11-11T03:51:07;103205.19;;;19.13
67509;BMP280;54354;44.724;11.284;2022-11-11T03:53:51;103210.94;;;19.12
67509;BMP280;54354;44.724;11.284;2022-11-11T03:56:35;103209.06;;;19.09
67509;BMP280;54354;44.724;11.284;2022-11-11T03:59:19;103204.53;;;19.06
67509;BMP280;54354;44.724;11.284;2022-11-11T04:02:03;103209.50;;;19.04
67509;BMP280;54354;44.724;11.284;2022-11-11T04:05:06;103211.09;;;19.01
67509;BMP280;54354;44.724;11.284;2022-11-11T04:08:14;103202.75;;;18.95
67509;BMP280;54354;44.724;11.284;2022-11-11T04:11:26;103205.47;;;18.92
67509;BMP280;54354;44.724;11.284;2022-11-11T04:14:12;103222.34;;;18.92
67509;BMP280;54354;44.724;11.284;2022-11-11T04:17:15;103226.53;;;18.93
67509;BMP280;54354;44.724;11.284;2022-11-11T04:19:59;103221.22;;;18.90
67509;BMP280;54354;44.724;11.284;2022-11-11T04:23:02;103222.38;;;18.89
67509;BMP280;54354;44.724;11.284;2022-11-11T04:25:46;103222.41;;;18.85
67509;BMP280;54354;44.724;11.284;2022-11-11T04:28:33;103225.50;;;18.84
67509;BMP280;54354;44.724;11.284;2022-11-11T04:31:36;103225.94;;;18.82
67509;BMP280;54354;44.724;11.284;2022-11-11T04:34:20;103220.56;;;18.79
67509;BMP280;54354;44.724;11.284;2022-11-11T04:37:04;103224.47;;;18.74
67509;BMP280;54354;44.724;11.284;2022-11-11T04:39:48;103229.84;;;18.74
67509;BMP280;54354;44.724;11.284;2022-11-11T04:42:54;103234.13;;;18.71
67509;BMP280;54354;44.724;11.284;2022-11-11T04:45:38;103227.59;;;18.73
67509;BMP280;54354;44.724;11.284;2022-11-11T04:48:22;103227.25;;;18.67
67509;BMP280;54354;44.724;11.284;2022-11-11T04:51:06;103233.00;;;18.65
67509;BMP280;54354;44.724;11.284;2022-11-11T04:53:50;103234.59;;;18.63
67509;BMP280;54354;44.724;11.284;2022-11-11T04:56:34;103227.75;;;18.58
67509;BMP280;54354;44.724;11.284;2022-11-11T04:59:33;103236.97;;;18.57
67509;BMP280;54354;44.724;11.284;2022-11-11T05:02:17;103236.28;;;18.50
67509;BMP280;54354;44.724;11.284;2022-11-11T05:05:37;103232.84;;;18.49
67509;BMP280;54354;44.724;11.284;2022-11-11T05:08:42;103243.63;;;18.42
67509;BMP280;54354;44.724;11.284;2022-11-11T05:11:38;103245.91;;;18.43
67509;BMP280;54354;44.724;11.284;2022-11-11T05:14:22;103247.09;;;18.42
67509;BMP280;54354;44.724;11.284;2022-11-11T05:17:25;103251.63;;;18.46
67509;BMP280;54354;44.724;11.284;2022-11-11T05:20:28;103246.25;;;18.49
67509;BMP280;54354;44.724;11.284;2022-11-11T05:23:31;103249.63;;;18.53
67509;BMP280;54354;44.724;11.284;2022-11-11T05:26:34;103244.63;;;18.55
67509;BMP280;54354;44.724;11.284;2022-11-11T05:29:19;103249.97;;;18.59
67509;BMP280;54354;44.724;11.284;2022-11-11T05:32:03;103244.97;;;18.61
67509;BMP280;54354;44.724;11.284;2022-11-11T05:34:50;103257.16;;;18.65
67509;BMP280;54354;44.724;11.284;2022-11-11T05:37:34;103247.97;;;18.66
67509;BMP280;54354;44.724;11.284;2022-11-11T05:40:18;103240.69;;;18.67
67509;BMP280;54354;44.724;11.284;2022-11-11T05:43:02;103252.13;;;18.71
67509;BMP280;54354;44.724;11.284;2022-11-11T05:45:46;103252.13;;;18.71
67509;BMP280;54354;44.724;11.284;2022-11-11T05:48:31;103249.44;;;18.71
67509;BMP280;54354;44.724;11.284;2022-11-11T05:51:15;103257.47;;;18.75
67509;BMP280;54354;44.724;11.284;2022-11-11T05:54:11;103254.78;;;18.75
67509;BMP280;54354;44.724;11.284;2022-11-11T05:56:55;103256.31;;;18.76
67509;BMP280;54354;44.724;11.284;2022-11-11T05:59:39;103250.22;;;18.71
67509;BMP280;54354;44.724;11.284;2022-11-11T06:02:23;103267.41;;;18.74
67509;BMP280;54354;44.724;11.284;2022-11-11T06:05:07;103264.78;;;18.70
67509;BMP280;54354;44.724;11.284;2022-11-11T06:07:51;103266.69;;;18.74
67509;BMP280;54354;44.724;11.284;2022-11-11T06:10:37;103276.97;;;18.79
67509;BMP280;54354;44.724;11.284;2022-11-11T06:13:21;103280.41;;;18.79
67509;BMP280;54354;44.724;11.284;2022-11-11T06:16:06;103271.25;;;18.77
67509;BMP280;54354;44.724;11.284;2022-11-11T06:18:51;103267.41;;;18.74
67509;BMP280;54354;44.724;11.284;2022-11-11T06:21:35;103275.84;;;18.76
67509;BMP280;54354;44.724;11.284;2022-11-11T06:24:39;103274.25;;;18.82
67509;BMP280;54354;44.724;11.284;2022-11-11T06:27:23;103286.91;;;18.82
67509;BMP280;54354;44.724;11.284;2022-11-11T06:30:08;103278.09;;;18.81
67509;BMP280;54354;44.724;11.284;2022-11-11T06:32:53;103276.19;;;18.82
67509;BMP280;54354;44.724;11.284;2022-11-11T06:35:38;103279.22;;;18.84
67509;BMP280;54354;44.724;11.284;2022-11-11T06:38:22;103285.34;;;18.84
67509;BMP280;54354;44.724;11.284;2022-11-11T06:41:07;103288.78;;;18.85
67509;BMP280;54354;44.724;11.284;2022-11-11T06:43:51;103298.00;;;18.84
67509;BMP280;54354;44.724;11.284;2022-11-11T06:46:35;103304.53;;;18.83
67509;BMP280;54354;44.724;11.284;2022-11-11T06:49:19;103298.41;;;18.82
67509;BMP280;54354;44.724;11.284;2022-11-11T06:52:03;103301.09;;;18.82
67509;BMP280;54354;44.724;11.284;2022-11-11T06:54:47;103310.28;;;18.85
67509;BMP280;54354;44.724;11.284;2022-11-11T06:57:32;103304.84;;;18.88
67509;BMP280;54354;44.724;11.284;2022-11-11T07:00:16;103310.22;;;18.88
67509;BMP280;54354;44.724;11.284;2022-11-11T07:03:01;103307.97;;;18.87
67509;BMP280;54354;44.724;11.284;2022-11-11T07:05:45;103314.84;;;18.88
67509;BMP280;54354;44.724;11.284;2022-11-11T07:08:31;103314.88;;;18.84
67509;BMP280;54354;44.724;11.284;2022-11-11T07:11:15;103320.25;;;18.84
67509;BMP280;54354;44.724;11.284;2022-11-11T07:13:59;103328.31;;;18.84
67509;BMP280;54354;44.724;11.284;2022-11-11T07:16:43;103321.78;;;18.85
67509;BMP280;54354;44.724;11.284;2022-11-11T07:19:26;103318.72;;;18.87
67509;BMP280;54354;44.724;11.284;2022-11-11T07:22:10;103319.47;;;18.87
67509;BMP280;54354;44.724;11.284;2022-11-11T07:24:54;103320.59;;;18.86
67509;BMP280;54354;44.724;11.284;2022-11-11T07:27:39;103316.34;;;18.89
67509;BMP280;54354;44.724;11.284;2022-11-11T07:30:23;103324.78;;;18.91
67509;BMP280;54354;44.724;11.284;2022-11-11T07:33:07;103324.75;;;18.94
67509;BMP280;54354;44.724;11.284;2022-11-11T07:35:51;103329.75;;;18.96
67509;BMP280;54354;44.724;11.284;2022-11-11T07:38:35;103335.06;;;18.99
67509;BMP280;54354;44.724;11.284;2022-11-11T07:41:19;103339.22;;;19.04
67509;BMP280;54354;44.724;11.284;2022-11-11T07:44:03;103340.75;;;19.05
67509;BMP280;54354;44.724;11.284;2022-11-11T07:46:47;103344.94;;;19.06
67509;BMP280;54354;44.724;11.284;2022-11-11T07:49:32;103349.19;;;19.04
67509;BMP280;54354;44.724;11.284;2022-11-11T07:52:16;103351.94;;;19.00
67509;BMP280;54354;44.724;11.284;2022-11-11T07:55:00;103352.69;;;19.00
67509;BMP280;54354;44.724;11.284;2022-11-11T07:57:44;103349.19;;;19.04
67509;BMP280;54354;44.724;11.284;2022-11-11T08:00:28;103349.88;;;19.11
67509;BMP280;54354;44.724;11.284;2022-11-11T08:03:12;103346.34;;;19.18
67509;BMP280;54354;44.724;11.284;2022-11-11T08:05:56;103342.50;;;19.19
67509;BMP280;54354;44.724;11.284;2022-11-11T08:08:40;103342.78;;;19.24
67509;BMP280;54354;44.724;11.284;2022-11-11T08:11:24;103338.97;;;19.25
67509;BMP280;54354;44.724;11.284;2022-11-11T08:14:27;103337.38;;;19.28
67509;BMP280;54354;44.724;11.284;2022-11-11T08:17:11;103338.50;;;19.31
67509;BMP280;54354;44.724;11.284;2022-11-11T08:19:55;103348.44;;;19.37
67509;BMP280;54354;44.724;11.284;2022-11-11T08:22:41;103352.56;;;19.42
67509;BMP280;54354;44.724;11.284;2022-11-11T08:25:25;103365.88;;;19.52
67509;BMP280;54354;44.724;11.284;2022-11-11T08:28:09;103376.16;;;19.57
67509;BMP280;54354;44.724;11.284;2022-11-11T08:30:53;103376.47;;;19.63
67509;BMP280;54354;44.724;11.284;2022-11-11T08:33:38;103387.13;;;19.70
67509;BMP280;54354;44.724;11.284;2022-11-11T08:36:22;103374.03;;;19.72
67509;BMP280;54354;44.724;11.284;2022-11-11T08:39:08;103371.63;;;19.78
67509;BMP280;54354;44.724;11.284;2022-11-11T08:41:52;103381.19;;;19.82
67509;BMP280;54354;44.724;11.284;2022-11-11T08:44:39;103378.81;;;19.88
67509;BMP280;54354;44.724;11.284;2022-11-11T08:47:23;103375.63;;;19.93
67509;BMP280;54354;44.724;11.284;2022-11-11T08:50:07;103381.75;;;19.97
67509;BMP280;54354;44.724;11.284;2022-11-11T08:52:52;103388.19;;;20.03
67509;BMP280;54354;44.724;11.284;2022-11-11T08:55:36;103382.75;;;20.07
67509;BMP280;54354;44.724;11.284;2022-11-11T08:58:20;103390.38;;;20.12
67509;BMP280;54354;44.724;11.284;2022-11-11T09:01:10;103381.16;;;20.09
67509;BMP280;54354;44.724;11.284;2022-11-11T09:03:54;103396.72;;;20.22
67509;BMP280;54354;44.724;11.284;2022-11-11T09:06:38;103400.09;;;20.26
67509;BMP280;54354;44.724;11.284;2022-11-11T09:09:24;103401.97;;;20.29
67509;BMP280;54354;44.724;11.284;2022-11-11T09:12:08;103401.88;;;20.36
67509;BMP280;54354;44.724;11.284;2022-11-11T09:14:52;103392.16;;;20.42
67509;BMP280;54354;44.724;11.284;2022-11-11T09:17:36;103399.41;;;20.45
67509;BMP280;54354;44.724;11.284;2022-11-11T09:20:21;103398.94;;;20.50
67509;BMP280;54354;44.724;11.284;2022-11-11T09:23:05;103403.81;;;20.55
67509;BMP280;54354;44.724;11.284;2022-11-11T09:25:49;103409.94;;;20.59
67509;BMP280;54354;44.724;11.284;2022-11-11T09:28:33;103408.31;;;20.62
67509;BMP280;54354;44.724;11.284;2022-11-11T09:31:17;103406.81;;;20.61
67509;BMP280;54354;44.724;11.284;2022-11-11T09:34:01;103420.66;;;20.63
67509;BMP280;54354;44.724;11.284;2022-11-11T09:36:44;103423.28;;;20.66
67509;BMP280;54354;44.724;11.284;2022-11-11T09:39:28;103427.06;;;20.69
67509;BMP280;54354;44.724;11.284;2022-11-11T09:48:00;103417.19;;;20.82
67509;BMP280;54354;44.724;11.284;2022-11-11T09:50:49;103424.72;;;20.91
67509;BMP280;54354;44.724;11.284;2022-11-11T09:53:41;103422.75;;;20.95
67509;BMP280;54354;44.724;11.284;2022-11-11T09:56:26;103420.31;;;21.00
67509;BMP280;54354;44.724;11.284;2022-11-11T09:59:22;103412.31;;;20.97
67509;BMP280;54354;44.724;11.284;2022-11-11T10:02:16;103419.88;;;21.02
67509;BMP280;54354;44.724;11.284;2022-11-11T10:05:08;103417.13;;;21.06
67509;BMP280;54354;44.724;11.284;2022-11-11T10:10:43;103412.56;;;21.02
67509;BMP280;54354;44.724;11.284;2022-11-11T10:13:32;103418.72;;;21.03
67509;BMP280;54354;44.724;11.284;2022-11-11T10:22:43;103412.00;;;21.11
67509;BMP280;54354;44.724;11.284;2022-11-11T10:25:28;103409.41;;;21.08
67509;BMP280;54354;44.724;11.284;2022-11-11T10:28:16;103403.59;;;21.09
67509;BMP280;54354;44.724;11.284;2022-11-11T10:31:04;103396.97;;;21.14
67509;BMP280;54354;44.724;11.284;2022-11-11T10:34:04;103392.16;;;21.21
67509;BMP280;54354;44.724;11.284;2022-11-11T10:36:53;103390.19;;;21.25
67509;BMP280;54354;44.724;11.284;2022-11-11T10:42:59;103392.16;;;21.21
67509;BMP280;54354;44.724;11.284;2022-11-11T10:45:50;103378.84;;;21.14
67509;BMP280;54354;44.724;11.284;2022-11-11T10:51:56;103372.72;;;21.14
67509;BMP280;54354;44.724;11.284;2022-11-11T10:55:08;103367.06;;;21.24
67509;BMP280;54354;44.724;11.284;2022-11-11T10:57:57;103368.25;;;21.23
67509;BMP280;54354;44.724;11.284;2022-11-11T11:00:47;103363.22;;;21.25
67509;BMP280;54354;44.724;11.284;2022-11-11T11:03:39;103351.22;;;21.26
67509;BMP280;54354;44.724;11.284;2022-11-11T11:06:27;103347.34;;;21.27
67509;BMP280;54354;44.724;11.284;2022-11-11T11:09:19;103335.06;;;21.26
67509;BMP280;54354;44.724;11.284;2022-11-11T11:12:17;103333.81;;;21.31
67509;BMP280;54354;44.724;11.284;2022-11-11T11:15:08;103334.22;;;21.29
67509;BMP280;54354;44.724;11.284;2022-11-11T11:18:03;103331.03;;;21.35
67509;BMP280;54354;44.724;11.284;2022-11-11T11:21:09;103327.06;;;21.39
67509;BMP280;54354;44.724;11.284;2022-11-11T11:23:53;103333.25;;;21.40
67509;BMP280;54354;44.724;11.284;2022-11-11T11:26:45;103330.22;;;21.38
67509;BMP280;54354;44.724;11.284;2022-11-11T11:29:32;103330.88;;;21.42
67509;BMP280;54354;44.724;11.284;2022-11-11T11:32:28;103332.72;;;21.45
67509;BMP280;54354;44.724;11.284;2022-11-11T11:35:42;103328.69;;;21.53
67509;BMP280;54354;44.724;11.284;2022-11-11T11:38:40;103320.94;;;21.55
67509;BMP280;54354;44.724;11.284;2022-11-11T11:41:38;103324.28;;;21.59
67509;BMP280;54354;44.724;11.284;2022-11-11T11:44:26;103322.34;;;21.59
67509;BMP280;54354;44.724;11.284;2022-11-11T11:50:39;103320.63;;;21.69
67509;BMP280;54354;44.724;11.284;2022-11-11T11:53:33;103312.59;;;21.66
67509;BMP280;54354;44.724;11.284;2022-11-11T11:56:35;103313.56;;;21.72
67509;BMP280;54354;44.724;11.284;2022-11-11T11:59:35;103309.03;;;21.69
67509;BMP280;54354;44.724;11.284;2022-11-11T12:02:31;103310.88;;;21.72
67509;BMP280;54354;44.724;11.284;2022-11-11T12:05:33;103308.88;;;21.76
67509;BMP280;54354;44.724;11.284;2022-11-11T12:17:09;103296.81;;;21.80
67509;BMP280;54354;44.724;11.284;2022-11-11T12:21:10;103296.44;;;21.95
67509;BMP280;54354;44.724;11.284;2022-11-11T12:23:57;103283.28;;;21.97
67509;BMP280;54354;44.724;11.284;2022-11-11T12:27:34;103290.53;;;22.00
67509;BMP280;54354;44.724;11.284;2022-11-11T12:30:21;103291.13;;;21.91
67509;BMP280;54354;44.724;11.284;2022-11-11T12:36:26;103292.00;;;21.88
67509;BMP280;54354;44.724;11.284;2022-11-11T12:45:37;103286.69;;;21.84
67509;BMP280;54354;44.724;11.284;2022-11-11T12:51:56;103285.41;;;21.89
67509;BMP280;54354;44.724;11.284;2022-11-11T12:54:47;103287.72;;;21.91
67509;BMP280;54354;44.724;11.284;2022-11-11T12:58:12;103285.00;;;21.91
67509;BMP280;54354;44.724;11.284;2022-11-11T13:10:39;103284.41;;;21.83
67509;BMP280;54354;44.724;11.284;2022-11-11T13:13:57;103287.03;;;21.86
67509;BMP280;54354;44.724;11.284;2022-11-11T13:16:37;103288.53;;;21.87
67509;BMP280;54354;44.724;11.284;2022-11-11T13:19:41;103292.75;;;21.88
67509;BMP280;54354;44.724;11.284;2022-11-11T13:22:28;103285.50;;;21.85
67509;BMP280;54354;44.724;11.284;2022-11-11T13:25:25;103287.84;;;21.83
67509;BMP280;54354;44.724;11.284;2022-11-11T13:28:19;103288.31;;;21.82
67509;BMP280;54354;44.724;11.284;2022-11-11T13:31:30;103288.00;;;21.93
67509;BMP280;54354;44.724;11.284;2022-11-11T13:34:16;103292.75;;;21.88
67509;BMP280;54354;44.724;11.284;2022-11-11T13:37:04;103293.25;;;21.83
67509;BMP280;54354;44.724;11.284;2022-11-11T13:39:50;103294.00;;;21.84
67509;BMP280;54354;44.724;11.284;2022-11-11T13:42:38;103291.75;;;21.82
67509;BMP280;54354;44.724;11.284;2022-11-11T13:45:28;103299.84;;;21.82
67509;BMP280;54354;44.724;11.284;2022-11-11T13:48:27;103292.41;;;21.86
67509;BMP280;54354;44.724;11.284;2022-11-11T13:54:26;103294.19;;;21.93
67509;BMP280;54354;44.724;11.284;2022-11-11T13:57:23;103287.75;;;21.87
67509;BMP280;54354;44.724;11.284;2022-11-11T14:08:58;103293.69;;;21.82
67509;BMP280;54354;44.724;11.284;2022-11-11T14:11:43;103296.03;;;21.80
67509;BMP280;54354;44.724;11.284;2022-11-11T14:17:17;103289.56;;;21.77
67509;BMP280;54354;44.724;11.284;2022-11-11T14:23:28;103294.41;;;21.70
67509;BMP280;54354;44.724;11.284;2022-11-11T14:26:23;103290.59;;;21.67
67509;BMP280;54354;44.724;11.284;2022-11-11T14:29:15;103285.63;;;21.66
67509;BMP280;54354;44.724;11.284;2022-11-11T14:32:28;103289.84;;;21.67
67509;BMP280;54354;44.724;11.284;2022-11-11T14:35:26;103274.41;;;21.67
67509;BMP280;54354;44.724;11.284;2022-11-11T14:38:29;103272.47;;;21.68
67509;BMP280;54354;44.724;11.284;2022-11-11T14:50:02;103272.72;;;21.57
67509;BMP280;54354;44.724;11.284;2022-11-11T14:53:19;103270.44;;;21.55
67509;BMP280;54354;44.724;11.284;2022-11-11T14:56:14;103270.88;;;21.54
67509;BMP280;54354;44.724;11.284;2022-11-11T14:59:05;103264.06;;;21.49
67509;BMP280;54354;44.724;11.284;2022-11-11T15:01:52;103262.88;;;21.50
67509;BMP280;54354;44.724;11.284;2022-11-11T15:04:37;103267.91;;;21.48
67509;BMP280;54354;44.724;11.284;2022-11-11T15:07:29;103265.03;;;21.39
67509;BMP280;54354;44.724;11.284;2022-11-11T15:10:20;103264.00;;;21.37
67509;BMP280;54354;44.724;11.284;2022-11-11T15:25:30;103266.31;;;21.18
67509;BMP280;54354;44.724;11.284;2022-11-11T15:34:34;103269.00;;;21.18
67509;BMP280;54354;44.724;11.284;2022-11-11T15:37:23;103261.50;;;21.10
67509;BMP280;54354;44.724;11.284;2022-11-11T15:40:17;103269.75;;;21.02
67509;BMP280;54354;44.724;11.284;2022-11-11T15:43:02;103268.25;;;21.01
67509;BMP280;54354;44.724;11.284;2022-11-11T15:45:51;103274.56;;;20.95
67509;BMP280;54354;44.724;11.284;2022-11-11T15:48:42;103266.13;;;20.93
67509;BMP280;54354;44.724;11.284;2022-11-11T15:51:29;103279.25;;;20.91
67509;BMP280;54354;44.724;11.284;2022-11-11T15:54:20;103275.97;;;20.83
67509;BMP280;54354;44.724;11.284;2022-11-11T15:57:27;103275.88;;;20.87
67509;BMP280;54354;44.724;11.284;2022-11-11T16:03:05;103279.53;;;20.77
67509;BMP280;54354;44.724;11.284;2022-11-11T16:05:55;103281.81;;;21.14
67509;BMP280;54354;44.724;11.284;2022-11-11T16:08:43;103279.88;;;20.79
67509;BMP280;54354;44.724;11.284;2022-11-11T16:11:28;103288.13;;;20.71
67509;BMP280;54354;44.724;11.284;2022-11-11T16:14:39;103288.91;;;20.72
67509;BMP280;54354;44.724;11.284;2022-11-11T16:17:36;103279.22;;;20.55
67509;BMP280;54354;44.724;11.284;2022-11-11T16:20:27;103283.19;;;20.50
67509;BMP280;54354;44.724;11.284;2022-11-11T16:23:16;103282.06;;;20.48
67509;BMP280;54354;44.724;11.284;2022-11-11T16:26:00;103284.31;;;20.49
67509;BMP280;54354;44.724;11.284;2022-11-11T16:28:54;103282.19;;;20.40
67509;BMP280;54354;44.724;11.284;2022-11-11T16:31:40;103284.13;;;20.40
67509;BMP280;54354;44.724;11.284;2022-11-11T16:37:13;103275.69;;;20.38
67509;BMP280;54354;44.724;11.284;2022-11-11T16:43:20;103285.28;;;20.39
67509;BMP280;54354;44.724;11.284;2022-11-11T16:46:07;103293.09;;;20.33
67509;BMP280;54354;44.724;11.284;2022-11-11T16:48:52;103282.81;;;20.28
67509;BMP280;54354;44.724;11.284;2022-11-11T16:51:44;103282.19;;;20.21
67509;BMP280;54354;44.724;11.284;2022-11-11T16:54:31;103284.50;;;20.19
67509;BMP280;54354;44.724;11.284;2022-11-11T16:57:18;103284.66;;;20.11
67509;BMP280;54354;44.724;11.284;2022-11-11T17:00:04;103276.97;;;20.10
67509;BMP280;54354;44.724;11.284;2022-11-11T17:03:10;103277.72;;;20.10
67509;BMP280;54354;44.724;11.284;2022-11-11T17:06:03;103292.88;;;20.01
67509;BMP280;54354;44.724;11.284;2022-11-11T17:08:48;103287.50;;;20.01
67509;BMP280;54354;44.724;11.284;2022-11-11T17:14:22;103292.56;;;19.99
67509;BMP280;54354;44.724;11.284;2022-11-11T17:17:08;103297.28;;;19.91
67509;BMP280;54354;44.724;11.284;2022-11-11T17:19:54;103298.50;;;19.86
67509;BMP280;54354;44.724;11.284;2022-11-11T17:25:30;103315.16;;;19.78
67509;BMP280;54354;44.724;11.284;2022-11-11T17:28:14;103317.53;;;19.76
67509;BMP280;54354;44.724;11.284;2022-11-11T17:31:04;103313.34;;;19.71
67509;BMP280;54354;44.724;11.284;2022-11-11T17:33:49;103314.47;;;19.74
67509;BMP280;54354;44.724;11.284;2022-11-11T17:36:33;103314.03;;;19.75
67509;BMP280;54354;44.724;11.284;2022-11-11T17:39:18;103322.94;;;19.72
67509;BMP280;54354;44.724;11.284;2022-11-11T17:42:02;103321.47;;;19.68
67509;BMP280;54354;44.724;11.284;2022-11-11T17:44:46;103318.06;;;19.64